sensor_id;sensor_type;location;lat;lon;timestamp;pressure;altitude;pressure_sealevel;temperature;humidity
7264;BME280;3673;52.480;13.348;2022-10-31T00:00:43;101409.94;;;18.76;63.20
7264;BME280;3673;52.480;13.348;2022-10-31T00:03:10;101410.97;;;18.69;63.03
7264;BME280;3673;52.480;13.348;2022-10-31T00:05:41;101407.22;;;18.79;62.80
7264;BME280;3673;52.480;13.348;2022-10-31T00:08:07;101417.72;;;18.82;62.79
7264;BME280;3673;52.480;13.348;2022-10-31T00:10:37;101406.31;;;18.79;62.81
7264;BME280;3673;52.480;13.348;2022-10-31T00:13:05;101408.09;;;18.78;62.52
7264;BME280;3673;52.480;13.348;2022-10-31T00:15:32;101417.97;;;18.73;62.68
7264;BME280;3673;52.480;13.348;2022-10-31T00:17:59;101415.25;;;18.75;62.76
7264;BME280;3673;52.480;13.348;2022-10-31T00:20:26;101424.00;;;18.78;62.53
7264;BME280;3673;52.480;13.348;2022-10-31T00:22:57;101418.50;;;18.87;62.31
7264;BME280;3673;52.480;13.348;2022-10-31T00:25:24;101424.09;;;18.75;62.43
7264;BME280;3673;52.480;13.348;2022-10-31T00:27:51;101419.56;;;18.80;62.54
7264;BME280;3673;52.480;13.348;2022-10-31T00:30:18;101427.63;;;18.76;62.65
7264;BME280;3673;52.480;13.348;2022-10-31T00:32:44;101422.13;;;18.83;62.33
7264;BME280;3673;52.480;13.348;2022-10-31T00:35:11;101427.59;;;18.77;62.57
7264;BME280;3673;52.480;13.348;2022-10-31T00:37:38;101428.50;;;18.75;62.70
7264;BME280;3673;52.480;13.348;2022-10-31T00:40:08;101427.19;;;18.56;62.38
7264;BME280;3673;52.480;13.348;2022-10-31T00:42:35;101433.63;;;18.44;62.74
7264;BME280;3673;52.480;13.348;2022-10-31T00:45:03;101425.75;;;18.41;62.92
7264;BME280;3673;52.480;13.348;2022-10-31T00:47:30;101434.09;;;18.23;63.33
7264;BME280;3673;52.480;13.348;2022-10-31T00:49:56;101434.25;;;18.15;63.84
7264;BME280;3673;52.480;13.348;2022-10-31T00:52:23;101431.34;;;18.27;63.76
7264;BME280;3673;52.480;13.348;2022-10-31T00:54:50;101440.00;;;18.35;63.02
7264;BME280;3673;52.480;13.348;2022-10-31T00:57:18;101446.16;;;18.37;62.88
7264;BME280;3673;52.480;13.348;2022-10-31T00:59:44;101448.47;;;18.11;63.92
7264;BME280;3673;52.480;13.348;2022-10-31T01:02:11;101450.06;;;18.18;63.96
7264;BME280;3673;52.480;13.348;2022-10-31T01:04:38;101454.56;;;18.15;63.67
7264;BME280;3673;52.480;13.348;2022-10-31T01:07:05;101446.72;;;18.10;63.90
7264;BME280;3673;52.480;13.348;2022-10-31T01:09:31;101457.16;;;18.18;63.21
7264;BME280;3673;52.480;13.348;2022-10-31T01:11:58;101450.94;;;18.19;62.93
7264;BME280;3673;52.480;13.348;2022-10-31T01:14:26;101450.84;;;18.23;62.82
7264;BME280;3673;52.480;13.348;2022-10-31T01:16:53;101449.25;;;18.16;62.98
7264;BME280;3673;52.480;13.348;2022-10-31T01:19:19;101452.69;;;18.20;63.54
7264;BME280;3673;52.480;13.348;2022-10-31T01:21:46;101453.59;;;18.19;63.53
7264;BME280;3673;52.480;13.348;2022-10-31T01:24:13;101458.75;;;18.26;62.95
7264;BME280;3673;52.480;13.348;2022-10-31T01:26:40;101458.81;;;18.22;63.10
7264;BME280;3673;52.480;13.348;2022-10-31T01:29:08;101450.50;;;18.40;62.49
7264;BME280;3673;52.480;13.348;2022-10-31T01:31:39;101453.84;;;18.48;62.45
7264;BME280;3673;52.480;13.348;2022-10-31T01:34:06;101453.28;;;18.34;62.01
7264;BME280;3673;52.480;13.348;2022-10-31T01:36:35;101440.94;;;18.33;62.16
7264;BME280;3673;52.480;13.348;2022-10-31T01:39:06;101455.44;;;18.15;62.21
7264;BME280;3673;52.480;13.348;2022-10-31T01:41:35;101457.91;;;18.24;62.68
7264;BME280;3673;52.480;13.348;2022-10-31T01:47:15;101445.50;;;18.26;62.58
7264;BME280;3673;52.480;13.348;2022-10-31T01:49:48;101453.50;;;18.23;62.83
7264;BME280;3673;52.480;13.348;2022-10-31T01:52:20;101452.44;;;18.32;62.54
7264;BME280;3673;52.480;13.348;2022-10-31T01:54:54;101459.81;;;18.18;62.50
7264;BME280;3673;52.480;13.348;2022-10-31T01:57:23;101463.09;;;18.29;61.98
7264;BME280;3673;52.480;13.348;2022-10-31T01:59:56;101464.63;;;17.97;62.44
7264;BME280;3673;52.480;13.348;2022-10-31T02:02:27;101468.66;;;18.15;62.26
7264;BME280;3673;52.480;13.348;2022-10-31T02:04:54;101468.72;;;18.14;63.15
7264;BME280;3673;52.480;13.348;2022-10-31T02:07:26;101469.66;;;18.11;62.58
7264;BME280;3673;52.480;13.348;2022-10-31T02:09:55;101456.25;;;18.19;63.01
7264;BME280;3673;52.480;13.348;2022-10-31T02:12:23;101462.53;;;18.13;62.65
7264;BME280;3673;52.480;13.348;2022-10-31T02:14:50;101463.28;;;18.20;62.73
7264;BME280;3673;52.480;13.348;2022-10-31T02:17:17;101464.97;;;18.24;62.29
7264;BME280;3673;52.480;13.348;2022-10-31T02:19:51;101466.84;;;18.19;62.22
7264;BME280;3673;52.480;13.348;2022-10-31T02:22:27;101463.28;;;18.20;62.00
7264;BME280;3673;52.480;13.348;2022-10-31T02:25:11;101462.34;;;18.22;62.00
7264;BME280;3673;52.480;13.348;2022-10-31T02:28:01;101455.47;;;18.14;61.95
7264;BME280;3673;52.480;13.348;2022-10-31T02:30:41;101454.72;;;18.07;62.22
7264;BME280;3673;52.480;13.348;2022-10-31T02:33:22;101458.34;;;18.03;62.18
7264;BME280;3673;52.480;13.348;2022-10-31T02:36:00;101465.53;;;17.96;62.39
7264;BME280;3673;52.480;13.348;2022-10-31T02:38:46;101465.78;;;17.83;62.77
7264;BME280;3673;52.480;13.348;2022-10-31T02:41:23;101471.28;;;17.74;63.17
7264;BME280;3673;52.480;13.348;2022-10-31T02:44:02;101469.47;;;17.76;63.21
7264;BME280;3673;52.480;13.348;2022-10-31T02:46:35;101474.13;;;17.63;63.34
7264;BME280;3673;52.480;13.348;2022-10-31T02:49:10;101479.97;;;17.80;62.81
7264;BME280;3673;52.480;13.348;2022-10-31T02:51:40;101477.53;;;17.70;63.08
7264;BME280;3673;52.480;13.348;2022-10-31T02:54:18;101485.25;;;17.80;63.06
7264;BME280;3673;52.480;13.348;2022-10-31T02:56:46;101482.81;;;17.70;63.13
7264;BME280;3673;52.480;13.348;2022-10-31T02:59:15;101486.09;;;17.82;62.59
7264;BME280;3673;52.480;13.348;2022-10-31T03:02:03;101483.19;;;17.96;62.82
7264;BME280;3673;52.480;13.348;2022-10-31T03:04:46;101488.59;;;17.90;62.64
7264;BME280;3673;52.480;13.348;2022-10-31T03:07:24;101491.19;;;17.93;62.31
7264;BME280;3673;52.480;13.348;2022-10-31T03:10:03;101498.19;;;17.97;62.09
7264;BME280;3673;52.480;13.348;2022-10-31T03:12:38;101488.34;;;18.04;62.25
7264;BME280;3673;52.480;13.348;2022-10-31T03:15:14;101490.41;;;17.88;62.21
7264;BME280;3673;52.480;13.348;2022-10-31T03:17:52;101497.44;;;17.90;62.74
7264;BME280;3673;52.480;13.348;2022-10-31T03:20:29;101497.31;;;17.96;62.78
7264;BME280;3673;52.480;13.348;2022-10-31T03:22:57;101499.91;;;17.99;62.55
7264;BME280;3673;52.480;13.348;2022-10-31T03:25:26;101489.16;;;18.07;62.25
7264;BME280;3673;52.480;13.348;2022-10-31T03:27:54;101510.13;;;18.18;62.29
7264;BME280;3673;52.480;13.348;2022-10-31T03:30:21;101507.78;;;18.02;62.40
7264;BME280;3673;52.480;13.348;2022-10-31T03:32:51;101508.50;;;18.11;61.78
7264;BME280;3673;52.480;13.348;2022-10-31T03:35:20;101524.16;;;18.23;61.10
7264;BME280;3673;52.480;13.348;2022-10-31T03:37:52;101519.78;;;18.20;61.15
7264;BME280;3673;52.480;13.348;2022-10-31T03:40:21;101521.56;;;18.20;61.24
7264;BME280;3673;52.480;13.348;2022-10-31T03:42:57;101527.81;;;18.17;62.21
7264;BME280;3673;52.480;13.348;2022-10-31T03:45:28;101524.34;;;18.14;61.91
7264;BME280;3673;52.480;13.348;2022-10-31T03:47:57;101519.81;;;18.19;61.62
7264;BME280;3673;52.480;13.348;2022-10-31T03:50:29;101532.19;;;18.18;61.83
7264;BME280;3673;52.480;13.348;2022-10-31T03:53:05;101529.56;;;18.17;62.60
7264;BME280;3673;52.480;13.348;2022-10-31T03:55:40;101539.28;;;18.16;61.18
7264;BME280;3673;52.480;13.348;2022-10-31T03:58:12;101536.69;;;18.13;61.61
7264;BME280;3673;52.480;13.348;2022-10-31T04:00:43;101538.47;;;18.14;61.94
7264;BME280;3673;52.480;13.348;2022-10-31T04:03:14;101527.69;;;18.23;61.05
7264;BME280;3673;52.480;13.348;2022-10-31T04:05:46;101535.63;;;18.23;60.96
7264;BME280;3673;52.480;13.348;2022-10-31T04:08:23;101528.69;;;18.18;60.98
7264;BME280;3673;52.480;13.348;2022-10-31T04:10:51;101537.66;;;18.09;61.32
7264;BME280;3673;52.480;13.348;2022-10-31T04:13:23;101537.84;;;17.98;61.56
7264;BME280;3673;52.480;13.348;2022-10-31T04:15:52;101533.38;;;18.02;61.65
7264;BME280;3673;52.480;13.348;2022-10-31T04:18:22;101536.19;;;17.93;62.41
7264;BME280;3673;52.480;13.348;2022-10-31T04:20:49;101536.06;;;18.00;61.45
7264;BME280;3673;52.480;13.348;2022-10-31T04:23:27;101543.19;;;17.97;61.97
7264;BME280;3673;52.480;13.348;2022-10-31T04:25:53;101541.38;;;18.00;61.19
7264;BME280;3673;52.480;13.348;2022-10-31T04:28:20;101542.31;;;17.96;61.68
7264;BME280;3673;52.480;13.348;2022-10-31T04:30:47;101552.84;;;18.01;61.40
7264;BME280;3673;52.480;13.348;2022-10-31T04:33:14;101544.06;;;17.97;61.41
7264;BME280;3673;52.480;13.348;2022-10-31T04:35:41;101551.16;;;17.95;61.34
7264;BME280;3673;52.480;13.348;2022-10-31T04:38:08;101544.97;;;17.95;61.40
7264;BME280;3673;52.480;13.348;2022-10-31T04:40:36;101546.09;;;17.82;62.26
7264;BME280;3673;52.480;13.348;2022-10-31T04:43:03;101554.09;;;17.79;62.53
7264;BME280;3673;52.480;13.348;2022-10-31T04:45:30;101552.16;;;17.90;61.55
7264;BME280;3673;52.480;13.348;2022-10-31T04:47:57;101556.63;;;17.85;61.66
7264;BME280;3673;52.480;13.348;2022-10-31T04:50:23;101560.41;;;17.72;62.36
7264;BME280;3673;52.480;13.348;2022-10-31T04:52:50;101556.81;;;17.76;61.93
7264;BME280;3673;52.480;13.348;2022-10-31T04:55:17;101558.53;;;17.78;62.02
7264;BME280;3673;52.480;13.348;2022-10-31T04:57:48;101551.44;;;17.79;62.13
7264;BME280;3673;52.480;13.348;2022-10-31T05:00:18;101554.38;;;17.64;63.27
7264;BME280;3673;52.480;13.348;2022-10-31T05:02:47;101551.56;;;17.74;62.38
7264;BME280;3673;52.480;13.348;2022-10-31T05:05:16;101561.31;;;17.71;62.26
7264;BME280;3673;52.480;13.348;2022-10-31T05:07:45;101562.19;;;17.71;61.97
7264;BME280;3673;52.480;13.348;2022-10-31T05:10:15;101566.63;;;17.69;62.19
7264;BME280;3673;52.480;13.348;2022-10-31T05:12:47;101567.50;;;17.71;62.00
7264;BME280;3673;52.480;13.348;2022-10-31T05:15:15;101573.56;;;17.76;61.79
7264;BME280;3673;52.480;13.348;2022-10-31T05:17:42;101560.63;;;17.58;62.00
7264;BME280;3673;52.480;13.348;2022-10-31T05:20:10;101563.03;;;17.73;61.84
7264;BME280;3673;52.480;13.348;2022-10-31T05:22:41;101562.38;;;17.59;62.70
7264;BME280;3673;52.480;13.348;2022-10-31T05:25:08;101568.56;;;17.60;62.83
7264;BME280;3673;52.480;13.348;2022-10-31T05:27:39;101568.50;;;17.63;62.71
7264;BME280;3673;52.480;13.348;2022-10-31T05:30:08;101576.44;;;17.64;62.27
7264;BME280;3673;52.480;13.348;2022-10-31T05:32:40;101577.97;;;17.76;61.92
7264;BME280;3673;52.480;13.348;2022-10-31T05:35:11;101573.50;;;17.79;62.24
7264;BME280;3673;52.480;13.348;2022-10-31T05:37:38;101575.22;;;17.83;62.02
7264;BME280;3673;52.480;13.348;2022-10-31T05:40:09;101568.09;;;17.85;62.37
7264;BME280;3673;52.480;13.348;2022-10-31T05:42:38;101570.56;;;17.97;61.74
7264;BME280;3673;52.480;13.348;2022-10-31T05:45:08;101581.16;;;17.96;61.78
7264;BME280;3673;52.480;13.348;2022-10-31T05:47:35;101578.63;;;17.90;62.37
7264;BME280;3673;52.480;13.348;2022-10-31T05:50:03;101593.81;;;17.80;61.83
7264;BME280;3673;52.480;13.348;2022-10-31T05:52:30;101576.09;;;17.84;62.09
7264;BME280;3673;52.480;13.348;2022-10-31T05:54:57;101575.16;;;17.88;61.96
7264;BME280;3673;52.480;13.348;2022-10-31T05:57:23;101587.50;;;17.86;62.04
7264;BME280;3673;52.480;13.348;2022-10-31T05:59:50;101589.22;;;17.88;62.15
7264;BME280;3673;52.480;13.348;2022-10-31T06:02:19;101590.06;;;17.92;61.81
7264;BME280;3673;52.480;13.348;2022-10-31T06:04:46;101591.75;;;17.96;61.46
7264;BME280;3673;52.480;13.348;2022-10-31T06:07:13;101592.75;;;17.89;61.76
7264;BME280;3673;52.480;13.348;2022-10-31T06:09:40;101591.88;;;17.90;61.77
7264;BME280;3673;52.480;13.348;2022-10-31T06:12:07;101597.22;;;17.87;61.64
7264;BME280;3673;52.480;13.348;2022-10-31T06:14:34;101594.31;;;18.00;60.95
7264;BME280;3673;52.480;13.348;2022-10-31T06:17:01;101589.81;;;18.06;61.03
7264;BME280;3673;52.480;13.348;2022-10-31T06:19:29;101596.03;;;18.05;61.64
7264;BME280;3673;52.480;13.348;2022-10-31T06:21:56;101598.09;;;17.86;62.20
7264;BME280;3673;52.480;13.348;2022-10-31T06:24:22;101592.59;;;17.98;61.96
7264;BME280;3673;52.480;13.348;2022-10-31T06:26:49;101599.63;;;18.00;61.44
7264;BME280;3673;52.480;13.348;2022-10-31T06:29:16;101598.75;;;17.98;61.37
7264;BME280;3673;52.480;13.348;2022-10-31T06:31:43;101602.38;;;17.94;61.67
7264;BME280;3673;52.480;13.348;2022-10-31T06:34:10;101605.53;;;17.64;62.56
7264;BME280;3673;52.480;13.348;2022-10-31T06:36:38;101612.56;;;17.67;62.67
7264;BME280;3673;52.480;13.348;2022-10-31T06:39:05;101615.00;;;17.21;64.08
7264;BME280;3673;52.480;13.348;2022-10-31T06:41:32;101626.31;;;17.29;64.00
7264;BME280;3673;52.480;13.348;2022-10-31T06:43:58;101612.00;;;17.43;63.96
7264;BME280;3673;52.480;13.348;2022-10-31T06:46:25;101618.03;;;17.51;63.63
7264;BME280;3673;52.480;13.348;2022-10-31T06:48:52;101622.03;;;17.78;63.19
7264;BME280;3673;52.480;13.348;2022-10-31T06:51:19;101621.75;;;17.96;62.45
7264;BME280;3673;52.480;13.348;2022-10-31T06:53:47;101623.69;;;17.85;62.90
7264;BME280;3673;52.480;13.348;2022-10-31T06:56:14;101626.28;;;17.88;61.97
7264;BME280;3673;52.480;13.348;2022-10-31T06:58:41;101626.97;;;18.01;61.66
7264;BME280;3673;52.480;13.348;2022-10-31T07:01:07;101636.09;;;17.82;62.39
7264;BME280;3673;52.480;13.348;2022-10-31T07:03:34;101635.66;;;17.56;63.37
7264;BME280;3673;52.480;13.348;2022-10-31T07:06:01;101637.88;;;17.81;62.67
7264;BME280;3673;52.480;13.348;2022-10-31T07:08:28;101642.34;;;17.79;63.14
7264;BME280;3673;52.480;13.348;2022-10-31T07:10:57;101638.69;;;17.86;63.09
7264;BME280;3673;52.480;13.348;2022-10-31T07:13:24;101641.59;;;17.71;63.09
7264;BME280;3673;52.480;13.348;2022-10-31T07:15:54;101635.47;;;17.68;63.32
7264;BME280;3673;52.480;13.348;2022-10-31T07:18:21;101641.34;;;17.86;63.02
7264;BME280;3673;52.480;13.348;2022-10-31T07:20:48;101649.13;;;17.95;63.12
7264;BME280;3673;52.480;13.348;2022-10-31T07:23:15;101647.94;;;18.13;62.63
7264;BME280;3673;52.480;13.348;2022-10-31T07:25:41;101645.00;;;18.30;62.08
7264;BME280;3673;52.480;13.348;2022-10-31T07:28:10;101650.06;;;17.93;62.77
7264;BME280;3673;52.480;13.348;2022-10-31T07:30:37;101655.81;;;18.18;62.60
7264;BME280;3673;52.480;13.348;2022-10-31T07:33:05;101654.19;;;18.09;62.75
7264;BME280;3673;52.480;13.348;2022-10-31T07:35:32;101646.06;;;18.21;62.86
7264;BME280;3673;52.480;13.348;2022-10-31T07:38:07;101654.84;;;18.23;62.83
7264;BME280;3673;52.480;13.348;2022-10-31T07:40:34;101659.78;;;18.41;62.45
7264;BME280;3673;52.480;13.348;2022-10-31T07:43:01;101653.84;;;18.78;61.71
7264;BME280;3673;52.480;13.348;2022-10-31T07:45:29;101657.63;;;18.65;62.18
7264;BME280;3673;52.480;13.348;2022-10-31T07:47:56;101666.22;;;18.76;61.91
7264;BME280;3673;52.480;13.348;2022-10-31T07:50:25;101674.38;;;18.65;62.18
7264;BME280;3673;52.480;13.348;2022-10-31T07:52:59;101668.75;;;18.82;62.59
7264;BME280;3673;52.480;13.348;2022-10-31T07:55:27;101673.16;;;18.35;63.03
7264;BME280;3673;52.480;13.348;2022-10-31T07:57:58;101676.28;;;18.59;62.99
7264;BME280;3673;52.480;13.348;2022-10-31T08:00:26;101681.03;;;18.87;62.46
7264;BME280;3673;52.480;13.348;2022-10-31T08:03:05;101685.72;;;19.16;61.47
7264;BME280;3673;52.480;13.348;2022-10-31T08:05:33;101691.16;;;19.10;61.80
7264;BME280;3673;52.480;13.348;2022-10-31T08:08:00;101682.13;;;18.77;62.42
7264;BME280;3673;52.480;13.348;2022-10-31T08:10:28;101678.72;;;18.71;62.45
7264;BME280;3673;52.480;13.348;2022-10-31T08:12:56;101676.63;;;18.85;62.49
7264;BME280;3673;52.480;13.348;2022-10-31T08:15:24;101681.91;;;18.88;62.25
7264;BME280;3673;52.480;13.348;2022-10-31T08:17:52;101682.06;;;18.80;62.50
7264;BME280;3673;52.480;13.348;2022-10-31T08:20:20;101685.53;;;18.82;62.67
7264;BME280;3673;52.480;13.348;2022-10-31T08:22:54;101698.94;;;18.75;62.76
7264;BME280;3673;52.480;13.348;2022-10-31T08:25:22;101694.56;;;18.72;62.93
7264;BME280;3673;52.480;13.348;2022-10-31T08:27:50;101695.81;;;18.55;63.13
7264;BME280;3673;52.480;13.348;2022-10-31T08:30:18;101697.09;;;18.80;62.62
7264;BME280;3673;52.480;13.348;2022-10-31T08:32:45;101691.50;;;19.35;61.46
7264;BME280;3673;52.480;13.348;2022-10-31T08:35:12;101694.72;;;19.09;61.63
7264;BME280;3673;52.480;13.348;2022-10-31T08:37:41;101699.06;;;19.12;61.97
7264;BME280;3673;52.480;13.348;2022-10-31T08:40:09;101692.59;;;19.26;61.45
7264;BME280;3673;52.480;13.348;2022-10-31T08:42:36;101690.13;;;18.74;62.88
7264;BME280;3673;52.480;13.348;2022-10-31T08:45:04;101680.78;;;18.99;62.29
7264;BME280;3673;52.480;13.348;2022-10-31T08:47:31;101681.16;;;19.23;62.08
7264;BME280;3673;52.480;13.348;2022-10-31T08:49:57;101686.88;;;19.05;62.16
7264;BME280;3673;52.480;13.348;2022-10-31T08:52:24;101682.63;;;19.37;61.08
7264;BME280;3673;52.480;13.348;2022-10-31T08:54:53;101694.50;;;19.20;61.31
7264;BME280;3673;52.480;13.348;2022-10-31T08:57:20;101684.84;;;19.17;62.09
7264;BME280;3673;52.480;13.348;2022-10-31T08:59:46;101689.75;;;18.92;62.36
7264;BME280;3673;52.480;13.348;2022-10-31T09:02:13;101695.91;;;18.94;62.16
7264;BME280;3673;52.480;13.348;2022-10-31T09:04:40;101707.16;;;19.07;62.51
7264;BME280;3673;52.480;13.348;2022-10-31T09:07:06;101695.88;;;19.37;61.37
7264;BME280;3673;52.480;13.348;2022-10-31T09:09:33;101704.34;;;19.15;61.68
7264;BME280;3673;52.480;13.348;2022-10-31T09:12:01;101707.69;;;18.81;62.58
7264;BME280;3673;52.480;13.348;2022-10-31T09:14:28;101703.72;;;18.56;63.38
7264;BME280;3673;52.480;13.348;2022-10-31T09:16:54;101708.25;;;18.95;62.68
7264;BME280;3673;52.480;13.348;2022-10-31T09:19:21;101709.72;;;18.66;63.61
7264;BME280;3673;52.480;13.348;2022-10-31T09:21:52;101715.84;;;19.14;62.13
7264;BME280;3673;52.480;13.348;2022-10-31T09:24:19;101716.47;;;18.83;62.85
7264;BME280;3673;52.480;13.348;2022-10-31T09:26:46;101709.66;;;18.70;63.54
7264;BME280;3673;52.480;13.348;2022-10-31T09:29:14;101714.38;;;18.99;62.19
7264;BME280;3673;52.480;13.348;2022-10-31T09:31:41;101714.50;;;18.91;62.54
7264;BME280;3673;52.480;13.348;2022-10-31T09:34:07;101713.34;;;19.08;61.93
7264;BME280;3673;52.480;13.348;2022-10-31T09:36:34;101718.50;;;19.14;62.21
7264;BME280;3673;52.480;13.348;2022-10-31T09:39:01;101725.53;;;19.16;62.06
7264;BME280;3673;52.480;13.348;2022-10-31T09:41:42;101722.19;;;19.05;62.71
7264;BME280;3673;52.480;13.348;2022-10-31T09:44:21;101726.06;;;19.32;61.71
7264;BME280;3673;52.480;13.348;2022-10-31T09:46:59;101723.22;;;19.44;61.02
7264;BME280;3673;52.480;13.348;2022-10-31T09:49:53;101735.31;;;19.56;60.72
7264;BME280;3673;52.480;13.348;2022-10-31T09:52:24;101734.88;;;19.34;61.70
7264;BME280;3673;52.480;13.348;2022-10-31T09:54:58;101729.25;;;19.50;61.06
7264;BME280;3673;52.480;13.348;2022-10-31T09:57:31;101731.72;;;19.17;61.65
7264;BME280;3673;52.480;13.348;2022-10-31T10:00:03;101722.19;;;19.49;61.63
7264;BME280;3673;52.480;13.348;2022-10-31T10:02:36;101734.78;;;19.78;60.65
7264;BME280;3673;52.480;13.348;2022-10-31T10:05:08;101722.88;;;19.96;60.23
7264;BME280;3673;52.480;13.348;2022-10-31T10:07:44;101719.72;;;20.17;59.32
7264;BME280;3673;52.480;13.348;2022-10-31T10:10:16;101720.22;;;19.96;59.95
7264;BME280;3673;52.480;13.348;2022-10-31T10:13:01;101717.50;;;19.99;59.63
7264;BME280;3673;52.480;13.348;2022-10-31T10:16:00;101721.59;;;20.12;59.43
7264;BME280;3673;52.480;13.348;2022-10-31T10:18:37;101701.81;;;20.24;59.23
7264;BME280;3673;52.480;13.348;2022-10-31T10:21:19;101701.84;;;20.22;58.95
7264;BME280;3673;52.480;13.348;2022-10-31T10:24:01;101708.84;;;20.28;59.11
7264;BME280;3673;52.480;13.348;2022-10-31T10:26:37;101699.34;;;20.51;58.64
7264;BME280;3673;52.480;13.348;2022-10-31T10:29:23;101703.81;;;20.51;58.83
7264;BME280;3673;52.480;13.348;2022-10-31T10:31:55;101702.84;;;20.86;57.70
7264;BME280;3673;52.480;13.348;2022-10-31T10:34:29;101705.31;;;20.92;57.89
7264;BME280;3673;52.480;13.348;2022-10-31T10:37:02;101693.66;;;20.97;57.50
7264;BME280;3673;52.480;13.348;2022-10-31T10:39:32;101691.88;;;20.66;58.05
7264;BME280;3673;52.480;13.348;2022-10-31T10:42:11;101693.31;;;21.10;57.11
7264;BME280;3673;52.480;13.348;2022-10-31T10:44:57;101686.84;;;20.87;57.35
7264;BME280;3673;52.480;13.348;2022-10-31T10:47:50;101683.78;;;21.01;57.13
7264;BME280;3673;52.480;13.348;2022-10-31T10:50:22;101681.78;;;20.46;58.68
7264;BME280;3673;52.480;13.348;2022-10-31T10:52:56;101686.28;;;21.05;57.18
7264;BME280;3673;52.480;13.348;2022-10-31T10:55:35;101697.19;;;20.98;57.46
7264;BME280;3673;52.480;13.348;2022-10-31T10:58:07;101690.34;;;20.57;58.40
7264;BME280;3673;52.480;13.348;2022-10-31T11:00:38;101683.00;;;20.65;58.34
7264;BME280;3673;52.480;13.348;2022-10-31T11:03:08;101686.66;;;20.93;57.69
7264;BME280;3673;52.480;13.348;2022-10-31T11:05:39;101688.03;;;20.76;58.00
7264;BME280;3673;52.480;13.348;2022-10-31T11:08:08;101684.41;;;21.09;57.35
7264;BME280;3673;52.480;13.348;2022-10-31T11:10:35;101680.38;;;21.27;57.33
7264;BME280;3673;52.480;13.348;2022-10-31T11:13:20;101675.22;;;21.50;56.24
7264;BME280;3673;52.480;13.348;2022-10-31T11:15:57;101675.69;;;21.64;56.28
7264;BME280;3673;52.480;13.348;2022-10-31T11:18:29;101672.03;;;21.67;55.96
7264;BME280;3673;52.480;13.348;2022-10-31T11:20:58;101668.28;;;21.72;55.62
7264;BME280;3673;52.480;13.348;2022-10-31T11:23:27;101663.53;;;21.82;55.49
7264;BME280;3673;52.480;13.348;2022-10-31T11:25:56;101673.13;;;21.87;54.98
7264;BME280;3673;52.480;13.348;2022-10-31T11:28:24;101664.19;;;21.90;54.85
7264;BME280;3673;52.480;13.348;2022-10-31T11:30:53;101665.31;;;22.09;54.76
7264;BME280;3673;52.480;13.348;2022-10-31T11:33:28;101667.75;;;21.89;54.97
7264;BME280;3673;52.480;13.348;2022-10-31T11:35:55;101667.47;;;21.70;55.25
7264;BME280;3673;52.480;13.348;2022-10-31T11:38:26;101674.31;;;22.06;54.64
7264;BME280;3673;52.480;13.348;2022-10-31T11:40:59;101665.84;;;22.20;54.44
7264;BME280;3673;52.480;13.348;2022-10-31T11:43:27;101654.41;;;22.17;54.44
7264;BME280;3673;52.480;13.348;2022-10-31T11:45:54;101657.47;;;21.78;55.54
7264;BME280;3673;52.480;13.348;2022-10-31T11:48:23;101665.94;;;21.91;55.47
7264;BME280;3673;52.480;13.348;2022-10-31T11:50:56;101668.34;;;22.25;54.59
7264;BME280;3673;52.480;13.348;2022-10-31T11:53:27;101667.06;;;22.10;54.97
7264;BME280;3673;52.480;13.348;2022-10-31T11:56:05;101664.16;;;22.18;54.64
7264;BME280;3673;52.480;13.348;2022-10-31T11:58:32;101659.75;;;21.90;55.50
7264;BME280;3673;52.480;13.348;2022-10-31T12:00:59;101655.38;;;21.88;55.52
7264;BME280;3673;52.480;13.348;2022-10-31T12:03:48;101658.56;;;21.99;55.37
7264;BME280;3673;52.480;13.348;2022-10-31T12:06:23;101654.75;;;22.06;55.12
7264;BME280;3673;52.480;13.348;2022-10-31T12:08:52;101657.41;;;22.32;54.42
7264;BME280;3673;52.480;13.348;2022-10-31T12:11:36;101659.16;;;22.33;54.34
7264;BME280;3673;52.480;13.348;2022-10-31T12:14:18;101653.66;;;22.63;53.46
7264;BME280;3673;52.480;13.348;2022-10-31T12:16:55;101648.22;;;22.41;53.54
7264;BME280;3673;52.480;13.348;2022-10-31T12:19:35;101651.25;;;22.55;54.04
7264;BME280;3673;52.480;13.348;2022-10-31T12:22:13;101656.72;;;22.77;53.19
7264;BME280;3673;52.480;13.348;2022-10-31T12:25:06;101646.47;;;22.89;52.81
7264;BME280;3673;52.480;13.348;2022-10-31T12:28:07;101637.75;;;22.59;53.80
7264;BME280;3673;52.480;13.348;2022-10-31T12:30:51;101629.88;;;22.81;52.98
7264;BME280;3673;52.480;13.348;2022-10-31T12:33:39;101635.63;;;22.71;52.93
7264;BME280;3673;52.480;13.348;2022-10-31T12:36:37;101636.41;;;22.73;53.24
7264;BME280;3673;52.480;13.348;2022-10-31T12:39:25;101631.97;;;22.96;52.67
7264;BME280;3673;52.480;13.348;2022-10-31T12:42:02;101621.56;;;23.12;52.31
7264;BME280;3673;52.480;13.348;2022-10-31T12:45:00;101623.03;;;22.97;52.69
7264;BME280;3673;52.480;13.348;2022-10-31T12:47:46;101620.63;;;23.13;52.36
7264;BME280;3673;52.480;13.348;2022-10-31T12:50:28;101618.13;;;23.08;52.52
7264;BME280;3673;52.480;13.348;2022-10-31T12:53:12;101614.09;;;23.22;51.96
7264;BME280;3673;52.480;13.348;2022-10-31T12:55:54;101613.00;;;23.26;52.12
7264;BME280;3673;52.480;13.348;2022-10-31T12:58:26;101613.41;;;23.62;51.25
7264;BME280;3673;52.480;13.348;2022-10-31T13:01:07;101616.72;;;23.00;52.21
7264;BME280;3673;52.480;13.348;2022-10-31T13:03:44;101619.50;;;22.74;53.26
7264;BME280;3673;52.480;13.348;2022-10-31T13:06:17;101606.81;;;23.02;52.48
7264;BME280;3673;52.480;13.348;2022-10-31T13:08:50;101615.13;;;23.18;52.40
7264;BME280;3673;52.480;13.348;2022-10-31T13:11:24;101606.13;;;23.20;52.20
7264;BME280;3673;52.480;13.348;2022-10-31T13:14:00;101605.50;;;23.14;52.58
7264;BME280;3673;52.480;13.348;2022-10-31T13:16:33;101610.97;;;22.87;53.12
7264;BME280;3673;52.480;13.348;2022-10-31T13:19:08;101616.34;;;23.09;52.54
7264;BME280;3673;52.480;13.348;2022-10-31T13:21:39;101604.56;;;23.15;52.25
7264;BME280;3673;52.480;13.348;2022-10-31T13:24:13;101604.00;;;23.06;52.48